.
WxDataArchive / Data Records for 2009-05-23
2009-05-22 May 2009 2009-05-24

Data Records for Saturday, 23 May 2009

Time	Temp	Chill	HIndex	Humid	Dewpt	 Wind 	HiWind	WindDir	Rain 	Barom 
-----	----	-----	------	-----	-----	------	------	-------	-----	----- 
00:00	62.4	62.4	62.4	58	47.4	2	4	90	0.00	30.170 
00:05	62.3	62.3	62.3	58	47.3	2	5	90	0.00	30.170 
00:10	62.1	62.1	62.1	58	47.1	2	4	90	0.00	30.170 
00:15	62.1	62.1	62.1	58	47.1	2	5	90	0.00	30.167 
00:20	62.0	62.0	62.0	58	47.0	2	4	90	0.00	30.167 
00:25	61.8	61.8	61.8	59	47.3	1	4	90	0.00	30.167 
00:30	61.6	61.6	61.6	59	47.1	2	5	90	0.00	30.166 
00:35	61.5	61.5	61.5	59	47.0	2	4	90	0.00	30.166 
00:40	61.3	61.3	61.3	60	47.3	2	5	90	0.00	30.166 
00:45	61.2	61.2	61.2	60	47.2	2	4	68	0.00	30.163 
00:50	61.0	61.0	61.0	60	47.0	2	5	90	0.00	30.163 
00:55	60.9	60.9	60.9	60	46.9	1	4	90	0.00	30.163 
01:00	60.9	60.9	60.9	60	46.9	1	4	90	0.00	30.157 
01:05	60.7	60.7	60.7	60	46.7	0	1	90	0.00	30.157 
01:10	60.5	60.5	60.5	61	47.0	1	2	90	0.00	30.157 
01:15	60.2	60.2	60.2	61	46.7	1	4	90	0.00	30.151 
01:20	60.1	60.1	60.1	61	46.6	1	5	90	0.00	30.151 
01:25	59.9	59.9	59.9	62	46.8	0	3	90	0.00	30.151 
01:30	59.6	59.6	59.6	62	46.6	1	3	90	0.00	30.151 
01:35	59.5	59.5	59.5	62	46.5	2	5	90	0.00	30.151 
01:40	59.3	59.3	59.3	62	46.3	2	5	90	0.00	30.151 
01:45	59.3	59.3	59.3	62	46.3	2	5	90	0.00	30.148 
01:50	59.2	59.2	59.2	62	46.2	1	4	90	0.00	30.148 
01:55	59.0	59.0	59.0	62	46.0	1	5	68	0.00	30.148 
02:00	58.9	58.9	58.9	62	45.9	1	3	112	0.00	30.148 
02:05	58.7	58.7	58.7	62	45.7	1	3	112	0.00	30.148 
02:10	58.6	58.6	58.6	62	45.6	1	4	112	0.00	30.148 
02:15	58.3	58.3	58.3	63	45.8	0	2	112	0.00	30.148 
02:20	58.1	58.1	58.1	64	46.0	0	1	112	0.00	30.148 
02:25	57.8	57.8	57.8	64	45.7	0	1	112	0.00	30.148 
02:30	57.5	57.5	57.5	64	45.4	1	2	112	0.00	30.145 
02:35	57.3	57.3	57.3	65	45.6	0	2	112	0.00	30.145 
02:40	57.0	57.0	57.0	65	45.4	1	2	112	0.00	30.145 
02:45	57.0	57.0	57.0	64	44.9	1	4	90	0.00	30.137 
02:50	57.0	57.0	57.0	64	44.9	1	3	90	0.00	30.137 
02:55	56.9	56.9	56.9	64	44.8	0	1	90	0.00	30.137 
03:00	56.7	56.7	56.7	65	45.1	0	2	90	0.00	30.136 
03:05	56.6	56.6	56.6	65	45.0	1	2	90	0.00	30.136 
03:10	56.6	56.6	56.6	65	45.0	1	3	90	0.00	30.136 
03:15	56.6	56.6	56.6	65	45.0	1	3	90	0.00	30.132 
03:20	56.6	56.6	56.6	66	45.4	1	2	90	0.00	30.132 
03:25	56.6	56.6	56.6	66	45.4	1	3	90	0.00	30.132 
03:30	56.5	56.5	56.5	67	45.7	1	2	90	0.00	30.123 
03:35	56.5	56.5	56.5	67	45.7	1	3	90	0.00	30.123 
03:40	56.5	56.5	56.5	68	46.1	1	3	90	0.00	30.123 
03:45	56.5	56.5	56.5	68	46.1	1	4	90	0.00	30.120 
03:50	56.5	56.5	56.5	68	46.1	1	4	90	0.00	30.120 
03:55	56.3	56.3	56.3	69	46.3	1	3	90	0.00	30.120 
04:00	56.2	56.2	56.2	70	46.5	1	2	90	0.00	30.123 
04:05	56.0	56.0	56.0	70	46.4	1	3	90	0.00	30.123 
04:10	56.0	56.0	56.0	71	46.7	0	2	90	0.00	30.123 
04:15	55.7	55.7	55.7	72	46.8	0	2	90	0.00	30.123 
04:20	55.6	55.6	55.6	73	47.1	1	2	90	0.00	30.123 
04:25	55.4	55.4	55.4	73	46.9	0	2	90	0.00	30.123 
04:30	55.3	55.3	55.3	74	47.2	0	0	---	0.00	30.126 
04:35	55.1	55.1	55.1	74	47.0	0	0	---	0.00	30.126 
04:40	54.8	54.8	54.8	75	47.0	0	1	90	0.00	30.126 
04:45	54.7	54.7	54.7	75	46.9	0	0	---	0.00	30.123 
04:50	54.4	54.4	54.4	76	47.0	0	1	90	0.00	30.123 
04:55	54.2	54.2	54.2	76	46.8	0	1	90	0.00	30.123 
05:00	54.2	54.2	54.2	76	46.8	0	1	90	0.00	30.121 
05:05	54.1	54.1	54.1	76	46.7	0	1	90	0.00	30.121 
05:10	53.9	53.9	53.9	77	46.9	0	0	---	0.00	30.121 
05:15	53.9	53.9	53.9	77	46.9	0	1	90	0.00	30.120 
05:20	53.8	53.8	53.8	77	46.8	0	0	---	0.00	30.120 
05:25	53.6	53.6	53.6	78	46.9	0	0	---	0.00	30.120 
05:30	53.5	53.5	53.5	79	47.1	0	1	90	0.00	30.116 
05:35	53.3	53.3	53.3	79	47.0	0	0	---	0.00	30.116 
05:40	53.2	53.2	53.2	80	47.2	0	0	---	0.00	30.116 
05:45	53.1	53.1	53.1	80	47.1	0	0	---	0.00	30.113 
05:50	53.1	53.1	53.1	80	47.1	0	1	90	0.00	30.113 
05:55	52.9	52.9	52.9	81	47.2	0	0	---	0.00	30.113 
06:00	52.9	52.9	52.9	81	47.2	0	1	90	0.00	30.116 
06:05	52.8	52.8	52.8	81	47.1	0	0	---	0.00	30.116 
06:10	52.8	52.8	52.8	82	47.5	0	1	90	0.00	30.116 
06:15	52.8	52.8	52.8	83	47.8	0	1	90	0.00	30.122 
06:20	52.6	52.6	52.6	83	47.6	0	0	---	0.00	30.122 
06:25	52.6	52.6	52.6	84	47.9	0	1	90	0.00	30.122 
06:30	52.6	52.6	52.6	84	47.9	0	0	---	0.00	30.123 
06:35	52.8	52.8	52.8	84	48.1	0	2	90	0.00	30.123 
06:40	52.8	52.8	52.8	84	48.1	0	1	90	0.00	30.123 
06:45	52.9	52.9	52.9	84	48.2	0	1	90	0.00	30.125 
06:50	53.2	53.2	53.2	84	48.5	0	2	90	0.00	30.125 
06:55	53.5	53.5	53.5	84	48.8	0	2	90	0.00	30.125 
07:00	53.6	53.6	53.6	83	48.6	1	2	90	0.00	30.125 
07:05	53.8	53.8	53.8	83	48.8	1	2	90	0.00	30.125 
07:10	53.9	53.9	53.9	83	48.9	1	3	90	0.00	30.125 
07:15	54.1	54.1	54.1	83	49.1	1	4	90	0.00	30.125 
07:20	54.2	54.2	54.2	82	48.8	0	2	90	0.00	30.125 
07:25	54.5	54.5	54.5	82	49.1	1	2	90	0.00	30.125 
07:30	54.8	54.8	54.8	81	49.1	1	3	90	0.00	30.124 
07:35	55.3	55.3	55.3	81	49.6	1	2	90	0.00	30.124 
07:40	55.7	55.7	55.7	80	49.6	1	4	90	0.00	30.124 
07:45	56.0	56.0	56.0	79	49.6	1	3	90	0.00	30.124 
07:50	56.3	56.3	56.3	80	50.2	0	2	90	0.00	30.124 
07:55	56.2	56.2	56.2	80	50.1	1	2	90	0.00	30.124 
08:00	56.3	56.3	56.3	80	50.2	1	3	90	0.00	30.122 
08:05	56.9	56.9	56.9	79	50.5	2	4	90	0.00	30.122 
08:10	57.5	57.5	57.5	78	50.7	1	2	90	0.00	30.122 
08:15	58.3	58.3	58.3	77	51.1	1	2	90	0.00	30.127 
08:20	59.0	59.0	59.0	76	51.4	0	2	90	0.00	30.127 
08:25	59.8	59.8	59.8	74	51.5	0	2	90	0.00	30.127 
08:30	60.2	60.2	60.2	72	51.1	1	4	90	0.00	30.127 
08:35	60.7	60.7	60.7	73	52.0	1	3	90	0.00	30.127 
08:40	60.9	60.9	60.9	72	51.8	1	3	90	0.00	30.127 
08:45	61.2	61.2	61.2	70	51.3	1	2	135	0.00	30.123 
08:50	61.2	61.2	61.2	70	51.3	1	4	112	0.00	30.123 
08:55	61.0	61.0	61.0	71	51.5	1	3	90	0.00	30.123 
09:00	60.9	60.9	60.9	72	51.8	2	3	90	0.00	30.122 
09:05	61.2	61.2	61.2	71	51.7	2	3	112	0.00	30.122 
09:10	61.8	61.8	61.8	70	51.9	1	3	112	0.00	30.122 
09:15	62.6	62.6	62.6	69	52.3	1	3	112	0.00	30.123 
09:20	63.1	63.1	63.1	66	51.6	1	4	112	0.00	30.123 
09:25	63.5	63.5	63.5	65	51.5	0	1	112	0.00	30.123 
09:30	64.3	64.3	64.3	65	52.3	1	2	112	0.00	30.122 
09:35	64.8	64.8	64.8	63	51.9	1	3	112	0.00	30.122 
09:40	65.3	65.3	65.3	63	52.4	1	3	112	0.00	30.122 
09:45	65.6	65.6	65.6	64	53.1	1	3	112	0.00	30.114 
09:50	65.6	65.6	65.6	65	53.5	1	4	112	0.00	30.114 
09:55	66.0	66.0	66.0	63	53.0	1	4	112	0.00	30.114 
10:00	66.0	66.0	66.0	64	53.5	1	3	112	0.00	30.111 
10:05	66.3	66.3	66.3	63	53.3	1	4	112	0.00	30.111 
10:10	67.3	67.3	67.3	61	53.4	1	2	112	0.00	30.111 
10:15	67.9	67.9	67.9	61	53.9	1	4	112	0.00	30.107 
10:20	68.6	68.6	68.6	61	54.6	1	2	112	0.00	30.107 
10:25	69.4	69.4	69.4	58	54.0	1	4	90	0.00	30.107 
10:30	70.1	70.1	70.1	59	55.1	1	4	112	0.00	30.107 
10:35	70.6	70.6	70.6	56	54.1	1	4	112	0.00	30.107 
10:40	70.9	70.9	70.9	55	53.9	1	3	112	0.00	30.107 
10:45	71.1	71.1	71.1	57	55.1	1	2	112	0.00	30.101 
10:50	71.3	71.3	71.3	56	54.8	0	2	112	0.00	30.101 
10:55	72.1	72.1	72.1	56	55.5	0	2	112	0.00	30.101 
11:00	72.5	72.5	72.5	54	54.9	0	2	112	0.00	30.099 
11:05	72.7	72.7	72.7	54	55.1	0	2	112	0.00	30.099 
11:10	72.7	72.7	72.7	55	55.6	0	1	112	0.00	30.099 
11:15	72.8	72.8	72.8	53	54.7	0	1	112	0.00	30.105 
11:20	72.5	72.5	72.5	55	55.4	0	1	0	0.00	30.105 
11:25	72.1	72.1	72.1	55	55.0	0	1	0	0.00	30.105 
11:30	72.5	72.5	72.5	57	56.4	0	2	0	0.00	30.111 
11:35	73.3	73.3	73.3	54	55.6	0	2	0	0.00	30.111 
11:40	73.9	73.9	73.9	52	55.1	0	2	315	0.00	30.111 
11:45	74.4	74.4	74.4	54	56.7	0	1	315	0.00	30.103 
11:50	75.3	75.3	77.7	52	56.4	0	1	315	0.00	30.103 
11:55	76.0	76.0	78.1	52	57.1	0	2	315	0.00	30.103 
12:00	76.5	76.5	78.3	50	56.5	0	2	315	0.00	30.097 
12:05	76.3	76.3	78.2	50	56.3	0	1	315	0.00	30.097 
12:10	76.5	76.5	78.4	53	58.1	0	1	315	0.00	30.097 
12:15	76.7	76.7	78.4	51	57.2	0	2	315	0.00	30.093 
12:20	76.7	76.7	78.5	52	57.7	0	2	0	0.00	30.093 
12:25	76.7	76.7	78.4	49	56.1	0	1	0	0.00	30.093 
12:30	76.8	76.8	78.5	51	57.3	0	1	0	0.00	30.085 
12:35	76.8	76.8	78.5	49	56.2	0	1	0	0.00	30.085 
12:40	77.7	77.7	79.0	49	57.0	0	1	0	0.00	30.085 
12:45	78.8	78.8	79.8	50	58.6	0	2	0	0.00	30.081 
12:50	79.2	79.2	79.9	47	57.2	0	2	0	0.00	30.081 
12:55	79.9	79.9	80.4	47	57.8	1	3	45	0.00	30.081 
13:00	79.8	79.8	80.3	46	57.2	1	3	45	0.00	30.079 
13:05	79.6	79.6	80.1	46	57.0	0	3	0	0.00	30.079 
13:10	79.6	79.6	80.3	48	58.2	1	2	292	0.00	30.079 
13:15	79.8	79.8	80.6	50	59.5	0	2	22	0.00	30.076 
13:20	79.8	79.8	80.5	48	58.3	0	3	45	0.00	30.076 
13:25	79.8	79.8	80.5	49	58.9	0	1	45	0.00	30.076 
13:30	80.1	80.1	80.9	50	59.8	0	2	0	0.00	30.070 
13:35	80.3	80.3	80.6	45	57.0	0	2	68	0.00	30.070 
13:40	80.9	80.9	81.8	51	61.0	0	3	45	0.00	30.070 
13:45	81.2	81.2	81.3	45	57.8	0	2	45	0.00	30.065 
13:50	81.2	81.2	81.2	44	57.2	0	2	0	0.00	30.065 
13:55	81.1	81.1	81.1	44	57.1	0	2	315	0.00	30.065 
14:00	80.9	80.9	81.3	47	58.8	0	2	315	0.00	30.060 
14:05	81.2	81.2	81.5	46	58.4	0	2	315	0.00	30.060 
14:10	81.4	81.4	81.8	47	59.2	0	1	315	0.00	30.060 
14:15	81.2	81.2	81.5	46	58.4	0	1	315	0.00	30.053 
14:20	81.1	81.1	81.3	45	57.7	0	2	315	0.00	30.053 
14:25	81.2	81.2	81.5	46	58.4	0	2	0	0.00	30.053 
14:30	81.2	81.2	81.7	48	59.6	1	2	338	0.00	30.052 
14:35	81.4	81.4	81.6	46	58.6	0	1	338	0.00	30.052 
14:40	81.4	81.4	81.6	46	58.6	0	1	338	0.00	30.052 
14:45	81.8	81.8	82.4	49	60.7	0	1	338	0.00	30.051 
14:50	81.8	81.8	82.0	46	59.0	0	2	338	0.00	30.051 
14:55	82.2	82.2	81.9	42	56.8	0	3	338	0.00	30.051 
15:00	82.6	82.6	82.5	44	58.4	0	2	338	0.00	30.048 
15:05	82.8	82.8	82.7	44	58.6	1	9	45	0.00	30.048 
15:10	82.6	82.6	82.1	41	56.5	1	2	22	0.00	30.048 
15:15	82.4	82.4	82.0	42	57.0	1	3	248	0.00	30.048 
15:20	83.0	83.0	82.8	43	58.2	0	2	248	0.00	30.048 
15:25	83.8	83.8	83.1	40	56.9	0	2	248	0.00	30.048 
15:30	84.3	84.3	83.3	38	55.9	1	3	270	0.00	30.037 
15:35	84.5	84.5	83.6	39	56.8	1	3	270	0.00	30.037 
15:40	84.1	84.1	82.9	37	55.0	1	2	270	0.00	30.037 
15:45	84.1	84.1	83.2	39	56.4	0	2	315	0.00	30.033 
15:50	84.3	84.3	83.4	39	56.6	2	3	292	0.00	30.033 
15:55	84.1	84.1	82.8	36	54.2	1	3	248	0.00	30.033 
16:00	84.3	84.3	82.9	35	53.6	2	3	292	0.00	30.029 
16:05	84.1	84.1	82.8	36	54.2	1	2	270	0.00	30.029 
16:10	84.5	84.5	83.2	36	54.6	0	2	270	0.00	30.029 
16:15	84.7	84.7	83.5	37	55.5	1	3	270	0.00	30.026 
16:20	84.9	84.9	83.6	36	54.9	1	3	248	0.00	30.026 
16:25	84.9	84.9	83.6	36	54.9	0	1	292	0.00	30.026 
16:30	84.9	84.9	84.0	39	57.1	0	2	292	0.00	30.021 
16:35	84.7	84.7	83.1	34	53.2	1	3	292	0.00	30.021 
16:40	84.9	84.9	83.7	37	55.7	0	1	292	0.00	30.021 
16:45	84.9	84.9	83.4	35	54.2	1	3	292	0.00	30.020 
16:50	84.9	84.9	83.4	35	54.2	0	2	292	0.00	30.020 
16:55	85.1	85.1	83.8	36	55.1	0	1	292	0.00	30.020 
17:00	85.3	85.3	84.3	38	56.8	0	1	292	0.00	30.016 
17:05	84.9	84.9	83.6	36	54.9	1	2	292	0.00	30.016 
17:10	84.7	84.7	83.4	36	54.8	1	2	292	0.00	30.016 
17:15	84.5	84.5	83.3	37	55.3	0	2	292	0.00	30.015 
17:20	84.5	84.5	83.0	35	53.8	0	1	292	0.00	30.015 
17:25	84.9	84.9	84.2	40	57.8	0	1	292	0.00	30.015 
17:30	85.3	85.3	84.5	39	57.5	0	2	292	0.00	30.010 
17:35	85.5	85.5	84.2	36	55.5	0	2	225	0.00	30.010 
17:40	85.5	85.5	84.5	38	57.0	0	3	225	0.00	30.010 
17:45	85.1	85.1	83.9	37	55.9	1	3	248	0.00	30.007 
17:50	85.1	85.1	83.8	36	55.1	0	2	248	0.00	30.007 
17:55	85.1	85.1	83.8	36	55.1	0	2	292	0.00	30.007 
18:00	84.9	84.9	83.7	37	55.7	0	2	292	0.00	30.005 
18:05	84.7	84.7	83.2	35	54.0	1	3	135	0.00	30.005 
18:10	84.5	84.5	83.6	39	56.8	0	0	---	0.00	30.005 
18:15	84.1	84.1	82.9	37	55.0	0	1	135	0.00	30.006 
18:20	84.0	84.0	83.1	39	56.3	0	1	135	0.00	30.006 
18:25	83.8	83.8	82.9	39	56.2	0	1	135	0.00	30.006 
18:30	83.6	83.6	82.5	37	54.5	0	2	135	0.00	30.005 
18:35	83.4	83.4	82.3	37	54.4	0	1	135	0.00	30.005 
18:40	83.2	83.2	82.5	40	56.3	0	1	135	0.00	30.005 
18:45	83.0	83.0	82.2	39	55.5	0	1	135	0.00	30.005 
18:50	82.8	82.8	82.0	39	55.3	0	1	135	0.00	30.005 
18:55	82.8	82.8	81.8	37	53.8	0	2	135	0.00	30.005 
19:00	82.8	82.8	81.9	38	54.6	0	1	135	0.00	29.998 
19:05	82.8	82.8	81.9	38	54.6	0	2	135	0.00	29.998 
19:10	82.6	82.6	81.7	38	54.4	0	1	135	0.00	29.998 
19:15	82.4	82.4	81.4	37	53.5	0	1	135	0.00	29.997 
19:20	82.2	82.2	81.3	37	53.3	0	1	135	0.00	29.997 
19:25	82.0	82.0	81.3	39	54.6	0	1	135	0.00	29.997 
19:30	81.8	81.8	81.1	38	53.7	0	0	---	0.00	29.998 
19:35	81.6	81.6	81.1	40	54.9	0	0	---	0.00	29.998 
19:40	81.4	81.4	81.1	41	55.4	0	0	---	0.00	29.998 
19:45	81.1	81.1	81.0	43	56.5	0	1	135	0.00	29.995 
19:50	80.9	80.9	80.9	43	56.3	0	0	---	0.00	29.995 
19:55	80.5	80.5	80.6	43	55.9	0	0	---	0.00	29.995 
20:00	80.3	80.3	80.4	43	55.7	0	0	---	0.00	30.000 
20:05	79.9	79.9	80.1	43	55.4	0	0	---	0.00	30.000 
20:10	79.8	79.8	80.0	43	55.3	0	0	---	0.00	30.000 
20:15	79.6	79.6	79.9	43	55.1	0	0	---	0.00	29.996 
20:20	79.2	79.2	79.7	44	55.4	0	0	---	0.00	29.996 
20:25	78.6	78.6	79.4	45	55.5	0	0	---	0.00	29.996 
20:30	78.3	78.3	79.2	46	55.8	0	0	---	0.00	30.000 
20:35	77.7	77.7	78.9	47	55.8	0	0	---	0.00	30.000 
20:40	77.4	77.4	78.8	49	56.7	0	0	---	0.00	30.000 
20:45	76.8	76.8	78.5	49	56.2	0	0	---	0.00	30.002 
20:50	76.3	76.3	78.2	50	56.3	0	0	---	0.00	30.002 
20:55	75.8	75.8	78.0	51	56.4	0	0	---	0.00	30.002 
21:00	75.3	75.3	77.7	51	55.9	0	0	---	0.00	30.003 
21:05	74.7	74.7	74.7	51	55.4	0	0	---	0.00	30.003 
21:10	74.4	74.4	74.4	52	55.6	0	0	---	0.00	30.003 
21:15	74.2	74.2	74.2	52	55.4	0	0	---	0.00	29.998 
21:20	73.9	73.9	73.9	51	54.6	0	0	---	0.00	29.998 
21:25	73.5	73.5	73.5	53	55.3	0	0	---	0.00	29.998 
21:30	73.0	73.0	73.0	53	54.8	0	0	---	0.00	30.001 
21:35	72.7	72.7	72.7	54	55.1	0	0	---	0.00	30.001 
21:40	72.1	72.1	72.1	55	55.0	0	0	---	0.00	30.001 
21:45	71.8	71.8	71.8	54	54.2	0	0	---	0.00	30.003 
21:50	71.5	71.5	71.5	55	54.5	0	0	---	0.00	30.003 
21:55	70.9	70.9	70.9	57	54.9	0	0	---	0.00	30.003 
22:00	70.6	70.6	70.6	58	55.1	0	0	---	0.00	30.006 
22:05	70.3	70.3	70.3	59	55.3	0	0	---	0.00	30.006 
22:10	69.9	69.9	69.9	60	55.4	0	0	---	0.00	30.006 
22:15	69.6	69.6	69.6	59	54.6	0	0	---	0.00	30.003 
22:20	69.4	69.4	69.4	61	55.4	0	0	---	0.00	30.003 
22:25	69.3	69.3	69.3	61	55.3	0	0	---	0.00	30.003 
22:30	68.9	68.9	68.9	62	55.3	0	0	---	0.00	30.009 
22:35	68.8	68.8	68.8	62	55.2	0	0	---	0.00	30.009 
22:40	68.4	68.4	68.4	63	55.3	0	0	---	0.00	30.009 
22:45	68.3	68.3	68.3	63	55.2	0	0	---	0.00	30.008 
22:50	67.9	67.9	67.9	64	55.3	0	0	---	0.00	30.008 
22:55	67.8	67.8	67.8	64	55.2	0	0	---	0.00	30.008 
23:00	67.6	67.6	67.6	65	55.4	0	0	---	0.00	30.009 
23:05	67.3	67.3	67.3	66	55.5	0	0	---	0.00	30.009 
23:10	66.9	66.9	66.9	66	55.2	0	0	---	0.00	30.009 
23:15	66.8	66.8	66.8	67	55.5	0	0	---	0.00	30.006 
23:20	66.4	66.4	66.4	67	55.1	0	0	---	0.00	30.006 
23:25	66.3	66.3	66.3	68	55.4	0	0	---	0.00	30.006 
23:30	66.0	66.0	66.0	69	55.5	0	0	---	0.00	30.006 
23:35	65.8	65.8	65.8	70	55.7	0	0	---	0.00	30.006 
23:40	65.6	65.6	65.6	70	55.5	0	0	---	0.00	30.006 
23:45	65.5	65.5	65.5	70	55.4	0	0	---	0.00	30.003 
23:50	65.2	65.2	65.2	71	55.6	0	0	---	0.00	30.003 
23:55	65.0	65.0	65.0	71	55.4	0	0	---	0.00	30.003 

CoCoRaHS
IN-AL-39
A2 Web Hosting
Creative Commons License
GoDaddy
search engine by freefind advanced

loaded 2018-11-14 04:37:59 • last modified 2010-11-18 10:43:29
Privacy PolicyDisclaimer
• wx.awcolley.com is powered by PmWiki v.2002016 •
• all content (unless otherwise noted) © 2018 A W Colley